sensor_id;sensor_type;location;lat;lon;timestamp;temperature;humidity
39095;DHT22;24840;47.508;19.376;2023-07-20T00:00:29;19.60;99.90
39095;DHT22;24840;47.508;19.376;2023-07-20T00:03:05;19.80;99.90
39095;DHT22;24840;47.508;19.376;2023-07-20T00:05:35;19.90;99.90
39095;DHT22;24840;47.508;19.376;2023-07-20T00:08:00;19.70;99.90
39095;DHT22;24840;47.508;19.376;2023-07-20T00:10:26;19.70;99.90
39095;DHT22;24840;47.508;19.376;2023-07-20T00:12:51;19.60;99.90
39095;DHT22;24840;47.508;19.376;2023-07-20T00:15:17;20.00;99.90
39095;DHT22;24840;47.508;19.376;2023-07-20T00:17:42;20.20;99.90
39095;DHT22;24840;47.508;19.376;2023-07-20T00:20:10;20.30;99.90
39095;DHT22;24840;47.508;19.376;2023-07-20T00:22:36;19.70;99.90
39095;DHT22;24840;47.508;19.376;2023-07-20T00:25:02;19.90;99.90
39095;DHT22;24840;47.508;19.376;2023-07-20T00:27:27;19.80;99.90
39095;DHT22;24840;47.508;19.376;2023-07-20T00:29:53;19.40;99.90
39095;DHT22;24840;47.508;19.376;2023-07-20T00:32:19;19.60;99.90
39095;DHT22;24840;47.508;19.376;2023-07-20T00:34:44;19.40;99.90
39095;DHT22;24840;47.508;19.376;2023-07-20T00:37:10;19.40;99.90
39095;DHT22;24840;47.508;19.376;2023-07-20T00:39:35;19.60;99.90
39095;DHT22;24840;47.508;19.376;2023-07-20T00:42:01;19.60;99.90
39095;DHT22;24840;47.508;19.376;2023-07-20T00:44:27;19.80;99.90
39095;DHT22;24840;47.508;19.376;2023-07-20T00:46:52;19.90;99.90
39095;DHT22;24840;47.508;19.376;2023-07-20T00:49:18;19.60;99.90
39095;DHT22;24840;47.508;19.376;2023-07-20T00:51:46;19.60;99.90
39095;DHT22;24840;47.508;19.376;2023-07-20T00:54:12;19.70;99.90
39095;DHT22;24840;47.508;19.376;2023-07-20T00:56:38;19.80;99.90
39095;DHT22;24840;47.508;19.376;2023-07-20T00:59:04;19.80;99.90
39095;DHT22;24840;47.508;19.376;2023-07-20T01:01:30;20.10;99.90
39095;DHT22;24840;47.508;19.376;2023-07-20T01:03:55;19.90;99.90
39095;DHT22;24840;47.508;19.376;2023-07-20T01:06:41;20.10;99.90
39095;DHT22;24840;47.508;19.376;2023-07-20T01:14:06;19.40;99.90
39095;DHT22;24840;47.508;19.376;2023-07-20T01:16:32;19.40;99.90
39095;DHT22;24840;47.508;19.376;2023-07-20T01:18:58;19.30;99.90
39095;DHT22;24840;47.508;19.376;2023-07-20T01:21:27;19.30;99.90
39095;DHT22;24840;47.508;19.376;2023-07-20T01:26:33;19.80;99.90
39095;DHT22;24840;47.508;19.376;2023-07-20T01:29:28;19.50;99.90
39095;DHT22;24840;47.508;19.376;2023-07-20T01:31:49;19.30;99.90
39095;DHT22;24840;47.508;19.376;2023-07-20T01:34:17;19.40;99.90
39095;DHT22;24840;47.508;19.376;2023-07-20T01:36:43;19.30;99.90
39095;DHT22;24840;47.508;19.376;2023-07-20T01:39:09;19.10;99.90
39095;DHT22;24840;47.508;19.376;2023-07-20T01:41:36;19.40;99.90
39095;DHT22;24840;47.508;19.376;2023-07-20T01:44:03;19.60;99.90
39095;DHT22;24840;47.508;19.376;2023-07-20T01:46:28;19.40;99.90
39095;DHT22;24840;47.508;19.376;2023-07-20T01:48:54;19.60;99.90
39095;DHT22;24840;47.508;19.376;2023-07-20T01:51:20;19.60;99.90
39095;DHT22;24840;47.508;19.376;2023-07-20T01:53:45;19.20;99.90
39095;DHT22;24840;47.508;19.376;2023-07-20T01:56:11;19.20;99.90
39095;DHT22;24840;47.508;19.376;2023-07-20T01:58:37;19.20;99.90
39095;DHT22;24840;47.508;19.376;2023-07-20T02:01:03;19.20;99.90
39095;DHT22;24840;47.508;19.376;2023-07-20T02:03:29;19.60;99.90
39095;DHT22;24840;47.508;19.376;2023-07-20T02:05:55;19.60;99.90
39095;DHT22;24840;47.508;19.376;2023-07-20T02:08:22;19.40;99.90
39095;DHT22;24840;47.508;19.376;2023-07-20T02:10:48;19.30;99.90
39095;DHT22;24840;47.508;19.376;2023-07-20T02:13:13;19.00;99.90
39095;DHT22;24840;47.508;19.376;2023-07-20T02:15:39;19.20;99.90
39095;DHT22;24840;47.508;19.376;2023-07-20T02:18:05;19.20;99.90
39095;DHT22;24840;47.508;19.376;2023-07-20T02:20:31;19.20;99.90
39095;DHT22;24840;47.508;19.376;2023-07-20T02:22:56;19.30;99.90
39095;DHT22;24840;47.508;19.376;2023-07-20T02:25:22;19.50;99.90
39095;DHT22;24840;47.508;19.376;2023-07-20T02:27:48;19.60;99.90
39095;DHT22;24840;47.508;19.376;2023-07-20T02:30:13;19.50;99.90
39095;DHT22;24840;47.508;19.376;2023-07-20T02:32:39;19.40;99.90
39095;DHT22;24840;47.508;19.376;2023-07-20T02:35:04;19.30;99.90
39095;DHT22;24840;47.508;19.376;2023-07-20T02:37:30;19.30;99.90
39095;DHT22;24840;47.508;19.376;2023-07-20T02:39:56;19.20;99.90
39095;DHT22;24840;47.508;19.376;2023-07-20T02:42:21;18.90;99.90
39095;DHT22;24840;47.508;19.376;2023-07-20T02:44:48;19.00;99.90
39095;DHT22;24840;47.508;19.376;2023-07-20T02:47:14;19.10;99.90
39095;DHT22;24840;47.508;19.376;2023-07-20T02:49:39;19.10;99.90
39095;DHT22;24840;47.508;19.376;2023-07-20T02:52:05;19.20;99.90
39095;DHT22;24840;47.508;19.376;2023-07-20T02:54:30;19.30;99.90
39095;DHT22;24840;47.508;19.376;2023-07-20T02:56:56;19.50;99.90
39095;DHT22;24840;47.508;19.376;2023-07-20T02:59:22;19.40;99.90
39095;DHT22;24840;47.508;19.376;2023-07-20T03:01:47;19.20;99.90
39095;DHT22;24840;47.508;19.376;2023-07-20T03:04:13;19.20;99.90
39095;DHT22;24840;47.508;19.376;2023-07-20T03:06:38;19.20;99.90
39095;DHT22;24840;47.508;19.376;2023-07-20T03:09:04;19.30;99.90
39095;DHT22;24840;47.508;19.376;2023-07-20T03:11:32;19.40;99.90
39095;DHT22;24840;47.508;19.376;2023-07-20T03:13:58;19.40;99.90
39095;DHT22;24840;47.508;19.376;2023-07-20T03:16:23;19.20;99.90
39095;DHT22;24840;47.508;19.376;2023-07-20T03:18:50;19.10;99.90
39095;DHT22;24840;47.508;19.376;2023-07-20T03:21:16;19.00;99.90
39095;DHT22;24840;47.508;19.376;2023-07-20T03:23:41;19.00;99.90
39095;DHT22;24840;47.508;19.376;2023-07-20T03:26:07;19.10;99.90
39095;DHT22;24840;47.508;19.376;2023-07-20T03:28:36;19.30;99.90
39095;DHT22;24840;47.508;19.376;2023-07-20T03:31:03;19.20;99.90
39095;DHT22;24840;47.508;19.376;2023-07-20T03:33:28;19.20;99.90
39095;DHT22;24840;47.508;19.376;2023-07-20T03:35:54;19.20;99.90
39095;DHT22;24840;47.508;19.376;2023-07-20T03:38:20;18.80;99.90
39095;DHT22;24840;47.508;19.376;2023-07-20T03:40:49;18.70;99.90
39095;DHT22;24840;47.508;19.376;2023-07-20T03:43:15;18.40;99.90
39095;DHT22;24840;47.508;19.376;2023-07-20T03:45:41;18.80;99.90
39095;DHT22;24840;47.508;19.376;2023-07-20T03:48:06;19.00;99.90
39095;DHT22;24840;47.508;19.376;2023-07-20T03:50:34;18.80;99.90
39095;DHT22;24840;47.508;19.376;2023-07-20T03:52:59;19.00;99.90
39095;DHT22;24840;47.508;19.376;2023-07-20T03:55:25;18.90;99.90
39095;DHT22;24840;47.508;19.376;2023-07-20T03:57:50;18.90;99.90
39095;DHT22;24840;47.508;19.376;2023-07-20T04:00:16;19.00;99.90
39095;DHT22;24840;47.508;19.376;2023-07-20T04:02:42;18.90;99.90
39095;DHT22;24840;47.508;19.376;2023-07-20T04:05:08;18.90;99.90
39095;DHT22;24840;47.508;19.376;2023-07-20T04:07:34;19.10;99.90
39095;DHT22;24840;47.508;19.376;2023-07-20T04:09:59;19.10;99.90
39095;DHT22;24840;47.508;19.376;2023-07-20T04:12:25;19.00;99.90
39095;DHT22;24840;47.508;19.376;2023-07-20T04:14:50;19.20;99.90
39095;DHT22;24840;47.508;19.376;2023-07-20T04:17:16;19.20;99.90
39095;DHT22;24840;47.508;19.376;2023-07-20T04:19:42;19.40;99.90
39095;DHT22;24840;47.508;19.376;2023-07-20T04:22:08;19.30;99.90
39095;DHT22;24840;47.508;19.376;2023-07-20T04:24:33;19.40;99.90
39095;DHT22;24840;47.508;19.376;2023-07-20T04:26:59;19.40;99.90
39095;DHT22;24840;47.508;19.376;2023-07-20T04:29:24;19.20;99.90
39095;DHT22;24840;47.508;19.376;2023-07-20T04:31:50;19.20;99.90
39095;DHT22;24840;47.508;19.376;2023-07-20T04:34:16;19.10;99.90
39095;DHT22;24840;47.508;19.376;2023-07-20T04:36:41;19.10;99.90
39095;DHT22;24840;47.508;19.376;2023-07-20T04:39:07;18.90;99.90
39095;DHT22;24840;47.508;19.376;2023-07-20T04:41:33;18.90;99.90
39095;DHT22;24840;47.508;19.376;2023-07-20T04:43:59;19.00;99.90
39095;DHT22;24840;47.508;19.376;2023-07-20T04:46:25;19.20;99.90
39095;DHT22;24840;47.508;19.376;2023-07-20T04:48:50;19.20;99.90
39095;DHT22;24840;47.508;19.376;2023-07-20T04:51:16;19.20;99.90
39095;DHT22;24840;47.508;19.376;2023-07-20T04:53:49;19.20;99.90
39095;DHT22;24840;47.508;19.376;2023-07-20T04:56:14;19.30;99.90
39095;DHT22;24840;47.508;19.376;2023-07-20T04:58:40;19.30;99.90
39095;DHT22;24840;47.508;19.376;2023-07-20T05:01:06;19.50;99.90
39095;DHT22;24840;47.508;19.376;2023-07-20T05:03:31;19.60;99.90
39095;DHT22;24840;47.508;19.376;2023-07-20T05:05:57;19.60;99.90
39095;DHT22;24840;47.508;19.376;2023-07-20T05:08:23;19.70;99.90
39095;DHT22;24840;47.508;19.376;2023-07-20T05:10:48;19.80;99.90
39095;DHT22;24840;47.508;19.376;2023-07-20T05:13:14;19.80;99.90
39095;DHT22;24840;47.508;19.376;2023-07-20T05:15:39;19.80;99.90
39095;DHT22;24840;47.508;19.376;2023-07-20T05:18:05;19.80;99.90
39095;DHT22;24840;47.508;19.376;2023-07-20T05:20:31;20.00;99.90
39095;DHT22;24840;47.508;19.376;2023-07-20T05:22:58;20.20;99.90
39095;DHT22;24840;47.508;19.376;2023-07-20T05:25:24;20.30;99.90
39095;DHT22;24840;47.508;19.376;2023-07-20T05:27:49;20.50;99.90
39095;DHT22;24840;47.508;19.376;2023-07-20T05:30:16;20.70;99.90
39095;DHT22;24840;47.508;19.376;2023-07-20T05:32:41;20.90;99.90
39095;DHT22;24840;47.508;19.376;2023-07-20T05:35:07;21.00;99.90
39095;DHT22;24840;47.508;19.376;2023-07-20T05:37:33;21.10;99.90
39095;DHT22;24840;47.508;19.376;2023-07-20T05:39:59;21.20;99.90
39095;DHT22;24840;47.508;19.376;2023-07-20T05:42:25;21.40;99.90
39095;DHT22;24840;47.508;19.376;2023-07-20T05:44:51;21.50;99.90
39095;DHT22;24840;47.508;19.376;2023-07-20T05:47:18;21.70;99.90
39095;DHT22;24840;47.508;19.376;2023-07-20T05:49:43;21.70;99.90
39095;DHT22;24840;47.508;19.376;2023-07-20T05:52:09;21.80;99.90
39095;DHT22;24840;47.508;19.376;2023-07-20T05:54:35;21.90;99.90
39095;DHT22;24840;47.508;19.376;2023-07-20T05:57:00;22.20;99.90
39095;DHT22;24840;47.508;19.376;2023-07-20T05:59:27;22.50;99.90
39095;DHT22;24840;47.508;19.376;2023-07-20T06:01:54;22.70;99.90
39095;DHT22;24840;47.508;19.376;2023-07-20T06:04:20;22.70;99.90
39095;DHT22;24840;47.508;19.376;2023-07-20T06:06:45;22.70;99.90
39095;DHT22;24840;47.508;19.376;2023-07-20T06:09:11;22.90;99.90
39095;DHT22;24840;47.508;19.376;2023-07-20T06:11:38;22.90;99.90
39095;DHT22;24840;47.508;19.376;2023-07-20T06:14:03;23.00;99.90
39095;DHT22;24840;47.508;19.376;2023-07-20T06:16:29;23.20;99.90
39095;DHT22;24840;47.508;19.376;2023-07-20T06:18:55;23.30;99.90
39095;DHT22;24840;47.508;19.376;2023-07-20T06:21:20;23.40;99.90
39095;DHT22;24840;47.508;19.376;2023-07-20T06:23:46;23.60;99.90
39095;DHT22;24840;47.508;19.376;2023-07-20T06:26:11;23.90;99.90
39095;DHT22;24840;47.508;19.376;2023-07-20T06:28:37;24.10;99.50
39095;DHT22;24840;47.508;19.376;2023-07-20T06:31:03;24.10;99.90
39095;DHT22;24840;47.508;19.376;2023-07-20T06:33:29;24.30;99.70
39095;DHT22;24840;47.508;19.376;2023-07-20T06:35:54;24.40;98.10
39095;DHT22;24840;47.508;19.376;2023-07-20T06:38:22;24.40;99.50
39095;DHT22;24840;47.508;19.376;2023-07-20T06:40:48;24.60;99.50
39095;DHT22;24840;47.508;19.376;2023-07-20T06:43:14;24.80;99.00
39095;DHT22;24840;47.508;19.376;2023-07-20T06:45:40;25.10;97.20
39095;DHT22;24840;47.508;19.376;2023-07-20T06:48:06;25.20;96.30
39095;DHT22;24840;47.508;19.376;2023-07-20T06:50:31;25.20;96.90
39095;DHT22;24840;47.508;19.376;2023-07-20T06:52:57;25.40;96.30
39095;DHT22;24840;47.508;19.376;2023-07-20T06:55:24;25.50;95.40
39095;DHT22;24840;47.508;19.376;2023-07-20T06:57:49;25.70;94.80
39095;DHT22;24840;47.508;19.376;2023-07-20T07:00:15;25.90;95.20
39095;DHT22;24840;47.508;19.376;2023-07-20T07:02:41;26.20;94.90
39095;DHT22;24840;47.508;19.376;2023-07-20T07:05:06;26.20;92.00
39095;DHT22;24840;47.508;19.376;2023-07-20T07:07:32;26.20;93.20
39095;DHT22;24840;47.508;19.376;2023-07-20T07:09:58;26.20;92.10
39095;DHT22;24840;47.508;19.376;2023-07-20T07:12:24;26.20;91.40
39095;DHT22;24840;47.508;19.376;2023-07-20T07:14:49;26.50;91.50
39095;DHT22;24840;47.508;19.376;2023-07-20T07:17:15;26.60;90.40
39095;DHT22;24840;47.508;19.376;2023-07-20T07:19:41;26.80;90.20
39095;DHT22;24840;47.508;19.376;2023-07-20T07:22:07;26.80;90.30
39095;DHT22;24840;47.508;19.376;2023-07-20T07:24:32;27.20;90.50
39095;DHT22;24840;47.508;19.376;2023-07-20T07:27:01;27.50;89.60
39095;DHT22;24840;47.508;19.376;2023-07-20T07:29:27;27.90;90.90
39095;DHT22;24840;47.508;19.376;2023-07-20T07:31:52;27.80;87.40
39095;DHT22;24840;47.508;19.376;2023-07-20T07:34:18;28.10;89.10
39095;DHT22;24840;47.508;19.376;2023-07-20T07:36:44;28.20;87.20
39095;DHT22;24840;47.508;19.376;2023-07-20T07:39:10;28.00;84.90
39095;DHT22;24840;47.508;19.376;2023-07-20T07:41:36;28.00;84.40
39095;DHT22;24840;47.508;19.376;2023-07-20T07:44:01;28.10;84.90
39095;DHT22;24840;47.508;19.376;2023-07-20T07:46:27;28.30;83.90
39095;DHT22;24840;47.508;19.376;2023-07-20T07:48:52;28.50;82.20
39095;DHT22;24840;47.508;19.376;2023-07-20T07:51:18;28.80;84.10
39095;DHT22;24840;47.508;19.376;2023-07-20T07:53:45;29.10;79.60
39095;DHT22;24840;47.508;19.376;2023-07-20T07:56:11;29.20;81.90
39095;DHT22;24840;47.508;19.376;2023-07-20T07:58:36;29.30;81.30
39095;DHT22;24840;47.508;19.376;2023-07-20T08:01:02;29.70;79.70
39095;DHT22;24840;47.508;19.376;2023-07-20T08:03:28;29.80;80.10
39095;DHT22;24840;47.508;19.376;2023-07-20T08:05:54;30.30;81.10
39095;DHT22;24840;47.508;19.376;2023-07-20T08:08:20;30.20;79.30
39095;DHT22;24840;47.508;19.376;2023-07-20T08:10:46;30.30;75.60
39095;DHT22;24840;47.508;19.376;2023-07-20T08:13:12;30.00;75.60
39095;DHT22;24840;47.508;19.376;2023-07-20T08:15:38;30.10;76.00
39095;DHT22;24840;47.508;19.376;2023-07-20T08:18:03;30.20;74.90
39095;DHT22;24840;47.508;19.376;2023-07-20T08:20:29;30.30;76.50
39095;DHT22;24840;47.508;19.376;2023-07-20T08:22:55;30.30;73.40
39095;DHT22;24840;47.508;19.376;2023-07-20T08:25:21;30.50;72.20
39095;DHT22;24840;47.508;19.376;2023-07-20T08:27:47;30.30;71.10
39095;DHT22;24840;47.508;19.376;2023-07-20T08:30:13;30.20;70.10
39095;DHT22;24840;47.508;19.376;2023-07-20T08:32:38;30.30;72.80
39095;DHT22;24840;47.508;19.376;2023-07-20T08:35:05;31.00;71.60
39095;DHT22;24840;47.508;19.376;2023-07-20T08:37:31;30.60;70.20
39095;DHT22;24840;47.508;19.376;2023-07-20T08:39:57;30.50;71.60
39095;DHT22;24840;47.508;19.376;2023-07-20T08:42:23;30.40;70.90
39095;DHT22;24840;47.508;19.376;2023-07-20T08:44:49;30.60;67.20
39095;DHT22;24840;47.508;19.376;2023-07-20T08:47:15;30.20;68.50
39095;DHT22;24840;47.508;19.376;2023-07-20T08:49:41;30.70;70.50
39095;DHT22;24840;47.508;19.376;2023-07-20T08:52:07;31.50;69.60
39095;DHT22;24840;47.508;19.376;2023-07-20T08:54:32;31.40;69.10
39095;DHT22;24840;47.508;19.376;2023-07-20T08:57:00;32.20;69.60
39095;DHT22;24840;47.508;19.376;2023-07-20T08:59:26;32.10;65.60
39095;DHT22;24840;47.508;19.376;2023-07-20T09:01:54;31.70;68.60
39095;DHT22;24840;47.508;19.376;2023-07-20T09:04:20;32.40;66.40
39095;DHT22;24840;47.508;19.376;2023-07-20T09:06:46;33.40;67.20
39095;DHT22;24840;47.508;19.376;2023-07-20T09:09:13;32.80;66.20
39095;DHT22;24840;47.508;19.376;2023-07-20T09:11:38;32.00;63.60
39095;DHT22;24840;47.508;19.376;2023-07-20T09:14:06;32.20;63.50
39095;DHT22;24840;47.508;19.376;2023-07-20T09:16:32;32.50;67.20
39095;DHT22;24840;47.508;19.376;2023-07-20T09:18:58;33.00;64.30
39095;DHT22;24840;47.508;19.376;2023-07-20T09:21:24;32.80;60.60
39095;DHT22;24840;47.508;19.376;2023-07-20T09:23:56;32.40;63.80
39095;DHT22;24840;47.508;19.376;2023-07-20T09:26:21;32.50;64.40
39095;DHT22;24840;47.508;19.376;2023-07-20T09:28:48;32.10;62.20
39095;DHT22;24840;47.508;19.376;2023-07-20T09:31:20;32.00;63.40
39095;DHT22;24840;47.508;19.376;2023-07-20T09:33:47;32.60;63.10
39095;DHT22;24840;47.508;19.376;2023-07-20T09:36:12;32.80;63.20
39095;DHT22;24840;47.508;19.376;2023-07-20T09:38:41;32.90;61.50
39095;DHT22;24840;47.508;19.376;2023-07-20T09:41:08;33.20;59.50
39095;DHT22;24840;47.508;19.376;2023-07-20T09:43:33;32.80;61.10
39095;DHT22;24840;47.508;19.376;2023-07-20T09:45:59;33.10;62.70
39095;DHT22;24840;47.508;19.376;2023-07-20T09:48:25;33.40;63.40
39095;DHT22;24840;47.508;19.376;2023-07-20T09:50:51;33.00;59.80
39095;DHT22;24840;47.508;19.376;2023-07-20T09:53:17;32.10;61.10
39095;DHT22;24840;47.508;19.376;2023-07-20T09:55:49;31.70;63.50
39095;DHT22;24840;47.508;19.376;2023-07-20T09:58:15;30.50;64.10
39095;DHT22;24840;47.508;19.376;2023-07-20T10:00:41;29.40;65.00
39095;DHT22;24840;47.508;19.376;2023-07-20T10:03:18;28.90;64.50
39095;DHT22;24840;47.508;19.376;2023-07-20T10:06:06;29.60;67.20
39095;DHT22;24840;47.508;19.376;2023-07-20T10:08:31;30.70;66.50
39095;DHT22;24840;47.508;19.376;2023-07-20T10:10:58;32.00;63.60
39095;DHT22;24840;47.508;19.376;2023-07-20T10:13:26;31.50;60.60
39095;DHT22;24840;47.508;19.376;2023-07-20T10:16:02;32.60;62.80
39095;DHT22;24840;47.508;19.376;2023-07-20T10:21:17;33.10;61.00
39095;DHT22;24840;47.508;19.376;2023-07-20T10:23:42;32.10;62.00
39095;DHT22;24840;47.508;19.376;2023-07-20T10:26:08;31.60;62.70
39095;DHT22;24840;47.508;19.376;2023-07-20T10:28:34;32.10;62.00
39095;DHT22;24840;47.508;19.376;2023-07-20T10:31:00;31.60;62.40
39095;DHT22;24840;47.508;19.376;2023-07-20T10:33:26;31.40;64.60
39095;DHT22;24840;47.508;19.376;2023-07-20T10:36:02;31.30;64.10
39095;DHT22;24840;47.508;19.376;2023-07-20T10:38:42;31.40;63.80
39095;DHT22;24840;47.508;19.376;2023-07-20T10:43:57;31.50;60.00
39095;DHT22;24840;47.508;19.376;2023-07-20T10:49:04;33.60;61.00
39095;DHT22;24840;47.508;19.376;2023-07-20T10:51:31;33.00;59.30
39095;DHT22;24840;47.508;19.376;2023-07-20T10:54:03;33.60;60.20
39095;DHT22;24840;47.508;19.376;2023-07-20T10:56:29;34.20;60.30
39095;DHT22;24840;47.508;19.376;2023-07-20T10:58:55;34.40;56.70
39095;DHT22;24840;47.508;19.376;2023-07-20T11:01:20;33.50;57.70
39095;DHT22;24840;47.508;19.376;2023-07-20T11:03:49;33.60;58.90
39095;DHT22;24840;47.508;19.376;2023-07-20T11:09:08;34.90;57.80
39095;DHT22;24840;47.508;19.376;2023-07-20T11:11:40;34.40;57.00
39095;DHT22;24840;47.508;19.376;2023-07-20T11:14:20;34.30;56.10
39095;DHT22;24840;47.508;19.376;2023-07-20T11:16:47;34.80;56.10
39095;DHT22;24840;47.508;19.376;2023-07-20T11:19:13;34.80;54.30
39095;DHT22;24840;47.508;19.376;2023-07-20T11:21:41;34.50;55.20
39095;DHT22;24840;47.508;19.376;2023-07-20T11:24:07;34.40;55.40
39095;DHT22;24840;47.508;19.376;2023-07-20T11:26:51;34.90;54.70
39095;DHT22;24840;47.508;19.376;2023-07-20T11:29:18;35.30;55.10
39095;DHT22;24840;47.508;19.376;2023-07-20T11:31:44;35.60;54.90
39095;DHT22;24840;47.508;19.376;2023-07-20T11:34:11;35.40;53.40
39095;DHT22;24840;47.508;19.376;2023-07-20T11:36:40;35.80;53.50
39095;DHT22;24840;47.508;19.376;2023-07-20T11:39:11;35.80;50.70
39095;DHT22;24840;47.508;19.376;2023-07-20T11:41:37;35.60;53.40
39095;DHT22;24840;47.508;19.376;2023-07-20T11:44:04;35.00;53.00
39095;DHT22;24840;47.508;19.376;2023-07-20T11:46:29;35.20;53.80
39095;DHT22;24840;47.508;19.376;2023-07-20T11:48:56;36.50;54.40
39095;DHT22;24840;47.508;19.376;2023-07-20T11:51:22;36.20;53.50
39095;DHT22;24840;47.508;19.376;2023-07-20T11:53:48;36.00;50.60
39095;DHT22;24840;47.508;19.376;2023-07-20T11:56:13;35.80;52.30
39095;DHT22;24840;47.508;19.376;2023-07-20T11:58:43;35.60;53.00
39095;DHT22;24840;47.508;19.376;2023-07-20T12:01:09;35.30;53.80
39095;DHT22;24840;47.508;19.376;2023-07-20T12:03:36;35.20;51.50
39095;DHT22;24840;47.508;19.376;2023-07-20T12:06:08;34.90;53.70
39095;DHT22;24840;47.508;19.376;2023-07-20T12:08:33;34.60;54.50
39095;DHT22;24840;47.508;19.376;2023-07-20T12:10:59;34.70;54.00
39095;DHT22;24840;47.508;19.376;2023-07-20T12:13:35;35.80;53.20
39095;DHT22;24840;47.508;19.376;2023-07-20T12:16:06;35.50;50.50
39095;DHT22;24840;47.508;19.376;2023-07-20T12:18:35;35.60;51.80
39095;DHT22;24840;47.508;19.376;2023-07-20T12:21:02;36.60;51.40
39095;DHT22;24840;47.508;19.376;2023-07-20T12:23:34;36.00;51.00
39095;DHT22;24840;47.508;19.376;2023-07-20T12:26:00;35.70;51.80
39095;DHT22;24840;47.508;19.376;2023-07-20T12:28:26;36.00;51.60
39095;DHT22;24840;47.508;19.376;2023-07-20T12:30:51;34.90;51.60
39095;DHT22;24840;47.508;19.376;2023-07-20T12:33:22;34.40;52.50
39095;DHT22;24840;47.508;19.376;2023-07-20T12:35:47;35.20;52.10
39095;DHT22;24840;47.508;19.376;2023-07-20T12:38:13;36.10;53.60
39095;DHT22;24840;47.508;19.376;2023-07-20T12:40:38;37.10;52.40
39095;DHT22;24840;47.508;19.376;2023-07-20T12:43:04;36.50;52.40
39095;DHT22;24840;47.508;19.376;2023-07-20T12:45:30;36.20;49.50
39095;DHT22;24840;47.508;19.376;2023-07-20T12:47:55;36.60;49.60
39095;DHT22;24840;47.508;19.376;2023-07-20T12:50:21;36.40;50.30
39095;DHT22;24840;47.508;19.376;2023-07-20T12:52:46;36.20;48.90
39095;DHT22;24840;47.508;19.376;2023-07-20T12:55:12;35.30;50.10
39095;DHT22;24840;47.508;19.376;2023-07-20T12:57:38;35.80;51.30
39095;DHT22;24840;47.508;19.376;2023-07-20T13:00:04;35.30;49.20
39095;DHT22;24840;47.508;19.376;2023-07-20T13:02:30;36.00;49.90
39095;DHT22;24840;47.508;19.376;2023-07-20T13:04:56;36.00;48.30
39095;DHT22;24840;47.508;19.376;2023-07-20T13:07:31;36.00;50.10
39095;DHT22;24840;47.508;19.376;2023-07-20T13:09:58;35.40;48.90
39095;DHT22;24840;47.508;19.376;2023-07-20T13:12:26;35.50;47.40
39095;DHT22;24840;47.508;19.376;2023-07-20T13:14:51;35.40;50.90
39095;DHT22;24840;47.508;19.376;2023-07-20T13:17:17;34.50;48.30
39095;DHT22;24840;47.508;19.376;2023-07-20T13:19:42;34.50;48.30
39095;DHT22;24840;47.508;19.376;2023-07-20T13:22:08;34.50;49.90
39095;DHT22;24840;47.508;19.376;2023-07-20T13:24:34;34.50;50.70
39095;DHT22;24840;47.508;19.376;2023-07-20T13:26:59;33.70;50.60
39095;DHT22;24840;47.508;19.376;2023-07-20T13:29:25;34.60;50.50
39095;DHT22;24840;47.508;19.376;2023-07-20T13:31:51;34.60;48.90
39095;DHT22;24840;47.508;19.376;2023-07-20T13:34:16;35.00;50.10
39095;DHT22;24840;47.508;19.376;2023-07-20T13:36:42;35.30;48.70
39095;DHT22;24840;47.508;19.376;2023-07-20T13:39:08;35.00;49.70
39095;DHT22;24840;47.508;19.376;2023-07-20T13:41:34;36.00;50.80
39095;DHT22;24840;47.508;19.376;2023-07-20T13:43:59;35.20;48.60
39095;DHT22;24840;47.508;19.376;2023-07-20T13:46:25;34.50;49.10
39095;DHT22;24840;47.508;19.376;2023-07-20T13:48:51;34.50;49.20
39095;DHT22;24840;47.508;19.376;2023-07-20T13:51:17;34.40;51.50
39095;DHT22;24840;47.508;19.376;2023-07-20T13:53:42;35.10;48.80
39095;DHT22;24840;47.508;19.376;2023-07-20T13:56:10;34.20;49.30
39095;DHT22;24840;47.508;19.376;2023-07-20T13:58:36;34.20;51.10
39095;DHT22;24840;47.508;19.376;2023-07-20T14:01:02;34.10;51.60
39095;DHT22;24840;47.508;19.376;2023-07-20T14:03:27;34.00;49.10
39095;DHT22;24840;47.508;19.376;2023-07-20T14:05:53;33.40;50.40
39095;DHT22;24840;47.508;19.376;2023-07-20T14:08:19;33.80;51.20
39095;DHT22;24840;47.508;19.376;2023-07-20T14:10:44;33.50;50.70
39095;DHT22;24840;47.508;19.376;2023-07-20T14:13:10;33.90;50.10
39095;DHT22;24840;47.508;19.376;2023-07-20T14:15:35;32.70;51.60
39095;DHT22;24840;47.508;19.376;2023-07-20T14:18:01;33.30;52.20
39095;DHT22;24840;47.508;19.376;2023-07-20T14:20:26;34.30;51.10
39095;DHT22;24840;47.508;19.376;2023-07-20T14:22:52;34.00;49.20
39095;DHT22;24840;47.508;19.376;2023-07-20T14:25:18;33.60;51.50
39095;DHT22;24840;47.508;19.376;2023-07-20T14:27:43;34.10;51.30
39095;DHT22;24840;47.508;19.376;2023-07-20T14:30:09;34.40;52.10
39095;DHT22;24840;47.508;19.376;2023-07-20T14:32:35;35.20;50.90
39095;DHT22;24840;47.508;19.376;2023-07-20T14:35:00;35.50;50.40
39095;DHT22;24840;47.508;19.376;2023-07-20T14:37:26;35.00;50.90
39095;DHT22;24840;47.508;19.376;2023-07-20T14:39:51;35.10;50.40
39095;DHT22;24840;47.508;19.376;2023-07-20T14:42:17;35.10;49.90
39095;DHT22;24840;47.508;19.376;2023-07-20T14:44:44;35.20;50.10
39095;DHT22;24840;47.508;19.376;2023-07-20T14:47:09;34.70;51.50
39095;DHT22;24840;47.508;19.376;2023-07-20T14:49:35;34.40;50.50
39095;DHT22;24840;47.508;19.376;2023-07-20T14:52:00;33.90;50.60
39095;DHT22;24840;47.508;19.376;2023-07-20T14:54:26;33.80;51.50
39095;DHT22;24840;47.508;19.376;2023-07-20T14:56:51;34.00;50.20
39095;DHT22;24840;47.508;19.376;2023-07-20T14:59:18;34.00;51.90
39095;DHT22;24840;47.508;19.376;2023-07-20T15:01:44;34.40;51.10
39095;DHT22;24840;47.508;19.376;2023-07-20T15:04:13;34.00;52.10
39095;DHT22;24840;47.508;19.376;2023-07-20T15:06:39;33.70;51.60
39095;DHT22;24840;47.508;19.376;2023-07-20T15:09:05;33.20;50.00
39095;DHT22;24840;47.508;19.376;2023-07-20T15:11:31;32.70;52.60
39095;DHT22;24840;47.508;19.376;2023-07-20T15:13:56;33.00;51.20
39095;DHT22;24840;47.508;19.376;2023-07-20T15:16:23;32.40;50.40
39095;DHT22;24840;47.508;19.376;2023-07-20T15:18:48;32.10;52.20
39095;DHT22;24840;47.508;19.376;2023-07-20T15:21:17;31.90;52.60
39095;DHT22;24840;47.508;19.376;2023-07-20T15:23:43;32.40;53.20
39095;DHT22;24840;47.508;19.376;2023-07-20T15:26:08;32.60;52.70
39095;DHT22;24840;47.508;19.376;2023-07-20T15:28:34;32.20;52.60